Flugplatz Hannover

Bericht für EDDV

vom 26.04. um 16:20 UTC

Wind 5 kt aus 270°

Sichtweite 9000 m

schwacher Regen

gering bewölkt in 800 ft

aufgebrochene Bewölkung in 5000 ft

Temperatur 10.0°C

Taupunkt 10.0°C

Luftfeuchtigkeit 100%

Luftdruck 1013 hPa

EDDV 261620Z 27005KT 9000 -RA FEW008 BKN050 10/10 Q1013 TEMPO RA

Prognose für EDDV

vom 26.04. um 15:27 UTC

Zwischen 15:00 UTC und 17:00 UTC

Wind 9 kt aus 280°

Sichtweite 10 km oder mehr

gering bewölkt in 4500 ft


Zwischen 15:00 UTC und 17:00 UTC zeitweise

Wind 15 kt aus 300° in Böen 25 kt

Regen


Zwischen 17:00 und 19:00 UTC übergehend zu

Wind 4 kt aus 240°

Sichtweite 10 km oder mehr

gering bewölkt in 4500 ft


Am 27.04. zwischen 06:00 und 08:00 UTC übergehend zu

Wind 10 kt aus 220°

Sichtweite 10 km oder mehr

gering bewölkt in 4500 ft


Am 27.04. zwischen 10:00 UTC und 12:00 UTC zeitweise mit einer Wahrscheinlichkeit von 30%

Wind 15 kt aus 250° in Böen 25 kt

Regenschauer

aufgelockert bewölkt in 1500 ft

aufgebrochene Bewölkung in 3500 ft

TAF AMD EDDV 261527Z 2615/2712 28009KT 9999 FEW045 TEMPO 2615/2617 30015G25KT RA BECMG 2617/2619 24004KT BECMG 2706/2708 22010KT PROB30 TEMPO 2710/2712 25015G25KT SHRA SCT015 BKN035CB
Impressum